createdAt,value
2022-11-17T00:01:20.808Z,97.70
2022-11-17T00:03:48.551Z,97.70
2022-11-17T00:06:15.815Z,97.70
2022-11-17T00:08:42.516Z,97.60
2022-11-17T00:11:09.310Z,97.60
2022-11-17T00:13:54.386Z,97.60
2022-11-17T00:16:21.666Z,97.60
2022-11-17T00:19:06.708Z,97.50
2022-11-17T00:21:33.544Z,97.60
2022-11-17T00:24:00.233Z,97.70
2022-11-17T00:26:30.774Z,97.80
2022-11-17T00:28:58.709Z,97.70
2022-11-17T00:31:44.951Z,97.70
2022-11-17T00:34:16.127Z,97.70
2022-11-17T00:36:44.329Z,97.80
2022-11-17T00:39:11.692Z,97.70
2022-11-17T00:41:38.406Z,97.70
2022-11-17T00:44:05.292Z,97.70
2022-11-17T00:46:32.396Z,97.70
2022-11-17T00:48:59.273Z,97.70
2022-11-17T00:51:26.101Z,97.70
2022-11-17T00:53:53.038Z,97.70
2022-11-17T00:56:19.870Z,97.70
2022-11-17T00:58:46.578Z,97.70
2022-11-17T01:01:13.370Z,97.60
2022-11-17T01:03:40.265Z,97.60
2022-11-17T01:06:07.914Z,97.50
2022-11-17T01:08:35.096Z,97.50
2022-11-17T01:11:20.399Z,97.60
2022-11-17T01:13:47.921Z,97.60
2022-11-17T01:16:15.814Z,97.60
2022-11-17T01:18:43.285Z,97.50
2022-11-17T01:21:11.662Z,97.50
2022-11-17T01:23:39.282Z,97.60
2022-11-17T01:26:08.135Z,97.60
2022-11-17T01:28:35.194Z,97.60
2022-11-17T01:31:06.167Z,97.50
2022-11-17T01:33:33.233Z,97.50
2022-11-17T01:36:01.065Z,97.50
2022-11-17T01:38:27.757Z,97.40
2022-11-17T01:40:54.531Z,97.50
2022-11-17T01:43:41.815Z,97.50
2022-11-17T01:46:15.512Z,97.50
2022-11-17T01:48:43.487Z,97.50
2022-11-17T01:51:11.192Z,97.50
2022-11-17T01:53:39.191Z,97.40
2022-11-17T01:56:09.443Z,97.40
2022-11-17T01:58:37.854Z,97.40
2022-11-17T02:01:04.647Z,97.50
2022-11-17T02:03:34.727Z,97.40
2022-11-17T02:06:07.291Z,97.50
2022-11-17T02:08:36.061Z,97.40
2022-11-17T02:11:03.895Z,97.40
2022-11-17T02:13:30.809Z,97.40
2022-11-17T02:15:57.560Z,97.40
2022-11-17T02:18:24.374Z,97.40
2022-11-17T02:20:53.838Z,97.30
2022-11-17T02:23:23.535Z,97.40
2022-11-17T02:26:09.204Z,97.40
2022-11-17T02:28:37.436Z,97.40
2022-11-17T02:31:10.206Z,97.30
2022-11-17T02:33:37.098Z,97.30
2022-11-17T02:36:17.995Z,97.30
2022-11-17T02:38:56.482Z,97.30
2022-11-17T02:41:26.800Z,97.30
2022-11-17T02:44:05.563Z,97.40
2022-11-17T02:46:36.465Z,97.30
2022-11-17T02:49:06.796Z,97.30
2022-11-17T02:51:34.846Z,97.40
2022-11-17T02:54:01.902Z,97.30
2022-11-17T02:56:28.611Z,97.60
2022-11-17T02:58:58.024Z,97.30
2022-11-17T03:01:40.634Z,97.40
2022-11-17T03:04:10.401Z,97.40
2022-11-17T03:06:55.685Z,97.30
2022-11-17T03:09:31.515Z,97.40
2022-11-17T03:12:06.377Z,97.40
2022-11-17T03:14:41.872Z,97.40
2022-11-17T03:17:15.566Z,97.30
2022-11-17T03:19:44.891Z,97.30
2022-11-17T03:22:23.754Z,97.30
2022-11-17T03:24:52.011Z,97.30
2022-11-17T03:27:26.851Z,97.30
2022-11-17T03:29:56.245Z,97.40
2022-11-17T03:32:23.541Z,97.30
2022-11-17T03:34:54.521Z,97.30
2022-11-17T03:37:22.894Z,97.30
2022-11-17T03:39:51.692Z,97.20
2022-11-17T03:42:18.476Z,97.20
2022-11-17T03:44:47.592Z,97.30
2022-11-17T03:47:15.197Z,97.40
2022-11-17T03:49:44.746Z,97.40
2022-11-17T03:52:11.463Z,97.30
2022-11-17T03:54:38.691Z,97.30
2022-11-17T03:57:14.345Z,97.30
2022-11-17T03:59:44.030Z,97.20
2022-11-17T04:02:17.431Z,97.30
2022-11-17T04:05:02.556Z,97.30
2022-11-17T04:07:29.412Z,97.30
2022-11-17T04:09:56.134Z,97.30
2022-11-17T04:12:41.661Z,97.30
2022-11-17T04:15:28.292Z,97.40
2022-11-17T04:17:55.601Z,97.20
2022-11-17T04:20:22.364Z,97.30
2022-11-17T04:23:07.439Z,97.20
2022-11-17T04:25:53.669Z,97.30
2022-11-17T04:28:38.994Z,97.30
2022-11-17T04:31:06.644Z,97.30
2022-11-17T04:33:33.869Z,97.10
2022-11-17T04:36:01.759Z,97.20
2022-11-17T04:38:28.486Z,97.20
2022-11-17T04:41:19.255Z,97.20
2022-11-17T04:43:45.950Z,97.20
2022-11-17T04:46:12.709Z,97.20
2022-11-17T04:48:39.517Z,97.20
2022-11-17T04:51:06.244Z,97.10
2022-11-17T04:53:33.221Z,97.20
2022-11-17T04:56:00.921Z,97.10
2022-11-17T04:58:27.942Z,97.10
2022-11-17T05:00:55.010Z,97.20
2022-11-17T05:03:22.040Z,97.30
2022-11-17T05:05:49.114Z,97.20
2022-11-17T05:08:15.799Z,97.30
2022-11-17T05:11:01.020Z,97.20
2022-11-17T05:13:27.876Z,97.20
2022-11-17T05:16:14.017Z,97.20
2022-11-17T05:18:41.241Z,97.30
2022-11-17T05:21:09.008Z,97.20
2022-11-17T05:23:54.115Z,97.20
2022-11-17T05:26:22.012Z,97.10
2022-11-17T05:28:48.996Z,97.10
2022-11-17T05:31:16.314Z,97.10
2022-11-17T05:33:43.991Z,97.20
2022-11-17T05:36:18.786Z,97.20
2022-11-17T05:38:56.885Z,97.30
2022-11-17T05:41:24.149Z,97.20
2022-11-17T05:43:51.257Z,97.20
2022-11-17T05:46:18.949Z,97.20
2022-11-17T05:48:46.034Z,97.20
2022-11-17T05:51:13.068Z,97.20
2022-11-17T05:53:39.857Z,97.20
2022-11-17T05:56:09.623Z,97.20
2022-11-17T05:58:38.007Z,97.20
2022-11-17T06:01:05.262Z,97.20
2022-11-17T06:03:38.731Z,97.20
2022-11-17T06:06:05.542Z,97.20
2022-11-17T06:08:32.274Z,97.20
2022-11-17T06:10:58.981Z,97.20
2022-11-17T06:13:26.121Z,97.10
2022-11-17T06:15:54.241Z,97.20
2022-11-17T06:18:24.366Z,97.20
2022-11-17T06:20:53.496Z,97.30
2022-11-17T06:23:21.533Z,97.20
2022-11-17T06:25:48.744Z,97.20
2022-11-17T06:28:17.150Z,97.20
2022-11-17T06:30:43.915Z,97.20
2022-11-17T06:33:12.334Z,97.20
2022-11-17T06:35:39.432Z,97.20
2022-11-17T06:38:06.140Z,97.20
2022-11-17T06:40:32.883Z,97.20
2022-11-17T06:43:09.559Z,97.20
2022-11-17T06:45:40.353Z,97.10
2022-11-17T06:48:08.051Z,97.10
2022-11-17T06:50:34.886Z,97.20
2022-11-17T06:53:02.745Z,97.20
2022-11-17T06:55:29.616Z,97.10
2022-11-17T06:58:02.831Z,97.10
2022-11-17T07:00:30.384Z,97.10
2022-11-17T07:03:07.159Z,97.10
2022-11-17T07:05:34.743Z,97.10
2022-11-17T07:08:02.666Z,97.20
2022-11-17T07:10:30.061Z,97.20
2022-11-17T07:12:56.848Z,97.10
2022-11-17T07:15:23.752Z,97.20
2022-11-17T07:17:50.570Z,97.10
2022-11-17T07:20:17.813Z,97.20
2022-11-17T07:22:44.988Z,97.20
2022-11-17T07:25:12.290Z,97.20
2022-11-17T07:27:39.207Z,97.20
2022-11-17T07:30:06.719Z,97.20
2022-11-17T07:32:34.219Z,97.20
2022-11-17T07:35:02.185Z,97.20
2022-11-17T07:37:32.160Z,97.30
2022-11-17T07:39:59.478Z,97.30
2022-11-17T07:42:26.306Z,97.30
2022-11-17T07:44:53.102Z,97.20
2022-11-17T07:47:20.124Z,97.20
2022-11-17T07:49:46.847Z,97.20
2022-11-17T07:52:13.545Z,97.20
2022-11-17T07:54:40.794Z,97.30
2022-11-17T07:57:07.563Z,97.30
2022-11-17T07:59:34.284Z,97.20
2022-11-17T08:02:01.128Z,97.20
2022-11-17T08:04:27.845Z,97.40
2022-11-17T08:06:54.604Z,97.40
2022-11-17T08:09:21.457Z,97.40
2022-11-17T08:11:48.626Z,97.50
2022-11-17T08:14:15.399Z,97.30
2022-11-17T08:16:42.347Z,97.40
2022-11-17T08:19:11.907Z,97.40
2022-11-17T08:21:38.872Z,97.40
2022-11-17T08:24:05.921Z,97.30
2022-11-17T08:26:32.682Z,97.50
2022-11-17T08:29:01.920Z,97.40
2022-11-17T08:31:28.829Z,97.40
2022-11-17T08:33:55.798Z,97.40
2022-11-17T08:36:22.599Z,97.70
2022-11-17T08:38:49.565Z,97.30
2022-11-17T08:41:16.436Z,97.40
2022-11-17T08:43:43.282Z,97.40
2022-11-17T08:46:12.259Z,97.40
2022-11-17T08:48:39.507Z,97.50
2022-11-17T08:51:07.096Z,97.30
2022-11-17T08:53:34.264Z,97.30
2022-11-17T08:56:01.000Z,97.30
2022-11-17T08:58:27.677Z,97.40
2022-11-17T09:00:54.573Z,97.50
2022-11-17T09:03:21.337Z,97.50
2022-11-17T09:05:48.437Z,97.50
2022-11-17T09:08:43.866Z,97.40
2022-11-17T09:11:06.130Z,97.40
2022-11-17T09:13:33.796Z,97.40
2022-11-17T09:16:04.363Z,97.50
2022-11-17T09:18:31.280Z,97.40
2022-11-17T09:21:01.378Z,97.40
2022-11-17T09:23:28.970Z,97.40
2022-11-17T09:25:55.723Z,97.50
2022-11-17T09:28:24.833Z,97.50
2022-11-17T09:30:52.198Z,97.40
2022-11-17T09:33:19.508Z,97.40
2022-11-17T09:35:46.484Z,97.60
2022-11-17T09:38:13.192Z,97.60
2022-11-17T09:40:40.404Z,97.60
2022-11-17T09:43:28.002Z,97.60
2022-11-17T09:45:57.518Z,97.60
2022-11-17T09:48:41.128Z,97.70
2022-11-17T09:51:10.332Z,97.60
2022-11-17T09:53:40.139Z,97.70
2022-11-17T09:56:08.853Z,97.70
2022-11-17T09:58:45.070Z,97.70
2022-11-17T10:01:13.137Z,97.70
2022-11-17T10:03:45.676Z,97.60
2022-11-17T10:06:23.741Z,97.70
2022-11-17T10:09:00.650Z,97.60
2022-11-17T10:11:32.264Z,97.60
2022-11-17T10:14:04.191Z,97.60
2022-11-17T10:16:31.458Z,97.60
2022-11-17T10:18:58.383Z,97.60
2022-11-17T10:21:28.577Z,97.60
2022-11-17T10:23:57.096Z,97.70
2022-11-17T10:26:24.060Z,97.60
2022-11-17T10:29:09.208Z,97.70
2022-11-17T10:31:40.371Z,97.70
2022-11-17T10:34:08.865Z,97.70
2022-11-17T10:36:35.620Z,97.70
2022-11-17T10:39:02.400Z,97.70
2022-11-17T10:41:42.981Z,97.70
2022-11-17T10:44:12.846Z,97.70
2022-11-17T10:47:02.328Z,97.70
2022-11-17T10:49:36.603Z,97.70
2022-11-17T10:52:23.538Z,97.70
2022-11-17T10:54:50.285Z,97.70
2022-11-17T10:57:20.040Z,97.80
2022-11-17T10:59:56.237Z,97.70
2022-11-17T11:02:30.224Z,97.80
2022-11-17T11:05:16.638Z,97.70
2022-11-17T11:07:43.478Z,97.70
2022-11-17T11:10:13.321Z,97.80
2022-11-17T11:12:45.337Z,97.80
2022-11-17T11:15:34.818Z,97.70
2022-11-17T11:18:01.845Z,97.70
2022-11-17T11:20:48.890Z,97.80
2022-11-17T11:23:30.805Z,97.80
2022-11-17T11:26:08.086Z,97.80
2022-11-17T11:29:07.095Z,97.80
2022-11-17T11:31:39.900Z,97.80
2022-11-17T11:34:17.557Z,97.80
2022-11-17T11:36:55.710Z,97.80
2022-11-17T11:39:31.564Z,97.80
2022-11-17T11:42:08.312Z,97.80
2022-11-17T11:44:47.445Z,97.80
2022-11-17T11:47:32.575Z,97.70
2022-11-17T11:50:03.635Z,97.70
2022-11-17T11:52:33.512Z,97.80
2022-11-17T11:55:05.888Z,97.70
2022-11-17T11:57:41.400Z,97.80
2022-11-17T12:00:14.402Z,97.80
2022-11-17T12:02:43.937Z,97.80
2022-11-17T12:05:17.009Z,97.70
2022-11-17T12:07:50.508Z,97.80
2022-11-17T12:10:17.349Z,97.80
2022-11-17T12:12:44.972Z,97.80
2022-11-17T12:15:20.601Z,97.70
2022-11-17T12:18:04.587Z,97.90
2022-11-17T12:20:31.303Z,97.80
2022-11-17T12:23:07.088Z,97.80
2022-11-17T12:25:36.178Z,97.80
2022-11-17T12:28:26.093Z,97.70
2022-11-17T12:30:54.384Z,97.90
2022-11-17T12:33:21.516Z,97.80
2022-11-17T12:36:08.199Z,97.80
2022-11-17T12:38:38.531Z,97.80
2022-11-17T12:41:06.374Z,97.90
2022-11-17T12:43:34.305Z,97.90
2022-11-17T12:46:13.285Z,97.90
2022-11-17T12:48:44.451Z,97.90
2022-11-17T12:51:11.198Z,97.90
2022-11-17T12:53:41.273Z,97.80
2022-11-17T12:56:13.538Z,97.90
2022-11-17T12:58:46.275Z,97.90
2022-11-17T13:01:31.808Z,97.90
2022-11-17T13:04:01.562Z,97.90
2022-11-17T13:06:35.339Z,97.90
2022-11-17T13:09:07.444Z,97.80
2022-11-17T13:11:34.495Z,97.80
2022-11-17T13:14:12.838Z,97.90
2022-11-17T13:16:48.185Z,97.90
2022-11-17T13:19:29.706Z,97.80
2022-11-17T13:22:01.103Z,97.90
2022-11-17T13:24:29.139Z,97.90
2022-11-17T13:27:00.353Z,97.80
2022-11-17T13:29:27.201Z,97.80
2022-11-17T13:32:11.766Z,97.80
2022-11-17T13:34:49.367Z,97.80
2022-11-17T13:37:23.563Z,97.90
2022-11-17T13:39:54.144Z,97.80
2022-11-17T13:42:21.294Z,97.90
2022-11-17T13:44:48.435Z,97.90
2022-11-17T13:47:20.731Z,97.90
2022-11-17T13:49:48.003Z,97.90
2022-11-17T13:52:34.608Z,97.90
2022-11-17T13:55:07.180Z,97.90
2022-11-17T13:57:33.995Z,97.90
2022-11-17T14:00:01.286Z,97.90
2022-11-17T14:02:29.760Z,97.80
2022-11-17T14:05:15.051Z,97.90
2022-11-17T14:07:42.473Z,97.90
2022-11-17T14:10:12.963Z,97.90
2022-11-17T14:12:40.013Z,97.90
2022-11-17T14:15:14.328Z,97.90
2022-11-17T14:17:41.745Z,97.90
2022-11-17T14:20:23.743Z,97.90
2022-11-17T14:23:11.498Z,97.90
2022-11-17T14:25:39.834Z,97.90
2022-11-17T14:28:16.669Z,98.20
2022-11-17T14:30:43.740Z,97.90
2022-11-17T14:33:13.535Z,97.90
2022-11-17T14:35:41.155Z,97.90
2022-11-17T14:38:13.338Z,98.00
2022-11-17T14:40:40.075Z,97.90
2022-11-17T14:43:06.918Z,98.00
2022-11-17T14:45:35.460Z,97.90
2022-11-17T14:48:02.771Z,97.90
2022-11-17T14:50:29.529Z,97.90
2022-11-17T14:52:56.224Z,97.90
2022-11-17T14:55:22.938Z,97.90
2022-11-17T14:57:49.804Z,98.00
2022-11-17T15:00:20.564Z,98.00
2022-11-17T15:02:47.885Z,97.90
2022-11-17T15:05:14.858Z,97.90
2022-11-17T15:07:42.488Z,98.00
2022-11-17T15:10:09.683Z,97.90
2022-11-17T15:12:36.736Z,97.90
2022-11-17T15:15:04.552Z,98.00
2022-11-17T15:17:31.273Z,97.90
2022-11-17T15:19:58.011Z,98.00
2022-11-17T15:22:24.751Z,98.00
2022-11-17T15:24:51.500Z,98.00
2022-11-17T15:27:18.347Z,98.00
2022-11-17T15:29:45.147Z,98.00
2022-11-17T15:32:11.916Z,98.00
2022-11-17T15:34:38.675Z,98.00
2022-11-17T15:37:05.571Z,98.00
2022-11-17T15:39:32.377Z,98.00
2022-11-17T15:41:59.124Z,98.00
2022-11-17T15:44:26.217Z,98.00
2022-11-17T15:46:52.972Z,98.00
2022-11-17T15:49:19.976Z,98.00
2022-11-17T15:51:46.796Z,97.90
2022-11-17T15:54:19.660Z,98.00
2022-11-17T15:56:47.058Z,97.90
2022-11-17T15:59:14.351Z,98.00
2022-11-17T16:01:41.443Z,98.00
2022-11-17T16:04:09.707Z,98.00
2022-11-17T16:06:37.626Z,98.00
2022-11-17T16:09:04.722Z,98.10
2022-11-17T16:11:31.617Z,98.00
2022-11-17T16:13:59.108Z,98.00
2022-11-17T16:16:28.346Z,98.10
2022-11-17T16:18:55.159Z,98.00
2022-11-17T16:21:21.898Z,98.10
2022-11-17T16:23:49.688Z,98.00
2022-11-17T16:26:18.010Z,98.00
2022-11-17T16:28:44.951Z,98.00
2022-11-17T16:31:19.392Z,98.00
2022-11-17T16:33:50.150Z,98.00
2022-11-17T16:36:17.420Z,98.00
2022-11-17T16:39:02.161Z,98.10
2022-11-17T16:41:31.117Z,98.10
2022-11-17T16:43:58.307Z,98.00
2022-11-17T16:46:26.318Z,98.00
2022-11-17T16:48:53.352Z,98.00
2022-11-17T16:51:21.285Z,98.10
2022-11-17T16:53:49.090Z,98.10
2022-11-17T16:56:16.234Z,98.00
2022-11-17T16:58:43.056Z,98.10
2022-11-17T17:01:16.825Z,98.10
2022-11-17T17:03:44.066Z,98.00
2022-11-17T17:06:12.307Z,98.10
2022-11-17T17:08:39.449Z,98.10
2022-11-17T17:11:10.466Z,98.20
2022-11-17T17:13:37.354Z,98.10
2022-11-17T17:16:04.904Z,98.10
2022-11-17T17:18:32.065Z,98.10
2022-11-17T17:20:59.143Z,98.10
2022-11-17T17:23:25.874Z,98.10
2022-11-17T17:26:06.035Z,98.20
2022-11-17T17:28:33.813Z,98.10
2022-11-17T17:31:00.878Z,98.10
2022-11-17T17:33:30.974Z,98.10
2022-11-17T17:36:01.630Z,98.20
2022-11-17T17:38:28.354Z,98.10
2022-11-17T17:40:55.318Z,98.10
2022-11-17T17:43:22.083Z,98.10
2022-11-17T17:45:48.834Z,98.10
2022-11-17T17:48:15.584Z,98.10
2022-11-17T17:50:42.332Z,98.10
2022-11-17T17:53:09.037Z,98.10
2022-11-17T17:55:35.870Z,98.10
2022-11-17T17:58:02.618Z,98.10
2022-11-17T18:00:29.331Z,98.10
2022-11-17T18:02:56.179Z,98.10
2022-11-17T18:05:23.055Z,98.10
2022-11-17T18:07:49.898Z,98.10
2022-11-17T18:10:17.085Z,98.10
2022-11-17T18:12:43.793Z,98.10
2022-11-17T18:15:10.889Z,98.10
2022-11-17T18:17:37.720Z,98.10
2022-11-17T18:20:04.698Z,98.20
2022-11-17T18:22:31.463Z,98.10
2022-11-17T18:24:58.565Z,98.20
2022-11-17T18:27:25.338Z,98.20
2022-11-17T18:29:52.160Z,98.10
2022-11-17T18:32:18.998Z,98.10
2022-11-17T18:34:45.733Z,98.10
2022-11-17T18:37:12.446Z,98.10
2022-11-17T18:39:39.191Z,98.10
2022-11-17T18:42:05.905Z,98.10
2022-11-17T18:44:32.657Z,98.10
2022-11-17T18:47:02.839Z,98.20
2022-11-17T18:49:30.443Z,98.10
2022-11-17T18:51:57.173Z,98.20
2022-11-17T18:54:24.093Z,98.20
2022-11-17T18:56:50.858Z,98.10
2022-11-17T18:59:18.680Z,98.10
2022-11-17T19:01:45.766Z,98.10
2022-11-17T19:04:13.679Z,98.10
2022-11-17T19:06:40.547Z,98.20
2022-11-17T19:09:08.389Z,98.20
2022-11-17T19:11:35.199Z,98.20
2022-11-17T19:14:02.436Z,98.20
2022-11-17T19:16:29.596Z,98.20
2022-11-17T19:18:56.720Z,98.20
2022-11-17T19:21:30.946Z,98.10
2022-11-17T19:23:58.618Z,98.10
2022-11-17T19:26:26.768Z,98.20
2022-11-17T19:29:01.140Z,98.20
2022-11-17T19:31:28.269Z,98.20
2022-11-17T19:33:55.638Z,98.20
2022-11-17T19:36:24.011Z,98.30
2022-11-17T19:38:51.410Z,98.30
2022-11-17T19:41:19.626Z,98.20
2022-11-17T19:43:46.536Z,98.20
2022-11-17T19:46:14.757Z,98.20
2022-11-17T19:48:42.576Z,98.20
2022-11-17T19:51:16.480Z,98.20
2022-11-17T19:53:43.662Z,98.20
2022-11-17T19:56:10.736Z,98.20
2022-11-17T19:58:38.098Z,98.20
2022-11-17T20:01:09.301Z,98.20
2022-11-17T20:03:36.531Z,98.20
2022-11-17T20:06:03.422Z,98.20
2022-11-17T20:08:30.493Z,98.30
2022-11-17T20:11:06.535Z,98.30
2022-11-17T20:13:33.838Z,98.30
2022-11-17T20:16:01.430Z,98.30
2022-11-17T20:18:28.507Z,98.30
2022-11-17T20:20:55.269Z,98.30
2022-11-17T20:23:22.368Z,98.20
2022-11-17T20:25:49.177Z,98.30
2022-11-17T20:28:16.222Z,98.30
2022-11-17T20:30:43.316Z,98.30
2022-11-17T20:33:10.210Z,98.30
2022-11-17T20:35:39.657Z,98.30
2022-11-17T20:38:07.294Z,98.30
2022-11-17T20:40:35.467Z,98.30
2022-11-17T20:43:02.249Z,98.30
2022-11-17T20:45:29.018Z,98.30
2022-11-17T20:47:55.966Z,98.30
2022-11-17T20:50:22.734Z,98.30
2022-11-17T20:52:49.467Z,98.30
2022-11-17T20:55:16.341Z,98.30
2022-11-17T20:57:43.449Z,98.30
2022-11-17T21:00:10.491Z,98.30
2022-11-17T21:02:37.361Z,98.30
2022-11-17T21:05:04.325Z,98.20
2022-11-17T21:07:31.045Z,98.30
2022-11-17T21:09:57.863Z,98.30
2022-11-17T21:12:24.616Z,98.40
2022-11-17T21:14:51.318Z,98.30
2022-11-17T21:17:36.922Z,98.30
2022-11-17T21:20:03.808Z,98.30
2022-11-17T21:22:30.520Z,98.30
2022-11-17T21:24:57.344Z,98.30
2022-11-17T21:27:24.090Z,98.30
2022-11-17T21:29:52.197Z,98.30
2022-11-17T21:32:19.091Z,98.30
2022-11-17T21:34:49.801Z,98.30
2022-11-17T21:37:17.392Z,98.30
2022-11-17T21:39:44.225Z,98.30
2022-11-17T21:42:10.959Z,98.30
2022-11-17T21:44:37.716Z,98.30
2022-11-17T21:47:04.467Z,98.30
2022-11-17T21:49:31.168Z,98.30
2022-11-17T21:51:57.850Z,98.40
2022-11-17T21:54:24.682Z,98.30
2022-11-17T21:56:51.376Z,98.30
2022-11-17T21:59:18.427Z,98.30
2022-11-17T22:01:45.575Z,98.30
2022-11-17T22:04:13.232Z,98.30
2022-11-17T22:06:40.046Z,98.30
2022-11-17T22:09:07.105Z,98.30
2022-11-17T22:11:37.461Z,98.30
2022-11-17T22:14:10.430Z,98.30
2022-11-17T22:16:38.315Z,98.30
2022-11-17T22:19:05.912Z,98.40
2022-11-17T22:21:33.005Z,98.40
2022-11-17T22:23:59.789Z,98.40
2022-11-17T22:26:26.545Z,98.30
2022-11-17T22:28:54.308Z,98.30
2022-11-17T22:31:21.766Z,98.30
2022-11-17T22:33:49.239Z,98.30
2022-11-17T22:36:16.171Z,98.30
2022-11-17T22:38:43.404Z,98.40
2022-11-17T22:41:11.776Z,98.40
2022-11-17T22:43:39.176Z,98.30
2022-11-17T22:46:07.724Z,98.30
2022-11-17T22:48:37.971Z,98.60
2022-11-17T22:51:05.364Z,98.30
2022-11-17T22:53:32.735Z,98.30
2022-11-17T22:56:03.433Z,98.30
2022-11-17T22:58:30.664Z,98.30
2022-11-17T23:00:57.574Z,98.30
2022-11-17T23:03:24.430Z,98.30
2022-11-17T23:05:51.287Z,98.30
2022-11-17T23:08:18.111Z,98.30
2022-11-17T23:10:44.858Z,98.30
2022-11-17T23:13:11.716Z,98.30
2022-11-17T23:15:39.362Z,98.30
2022-11-17T23:18:06.073Z,98.40
2022-11-17T23:20:33.198Z,98.30
2022-11-17T23:22:59.931Z,98.30
2022-11-17T23:25:26.636Z,98.30
2022-11-17T23:27:53.483Z,98.30
2022-11-17T23:30:20.219Z,98.40
2022-11-17T23:32:46.948Z,98.30
2022-11-17T23:35:13.732Z,98.30
2022-11-17T23:37:40.518Z,98.30
2022-11-17T23:40:07.580Z,98.30
2022-11-17T23:42:37.478Z,98.30
2022-11-17T23:45:07.516Z,98.30
2022-11-17T23:47:34.355Z,98.30
2022-11-17T23:50:01.191Z,98.30
2022-11-17T23:52:27.903Z,98.30
2022-11-17T23:54:54.732Z,98.30
2022-11-17T23:57:21.543Z,98.30
2022-11-17T23:59:48.261Z,98.30
